sensor_id;sensor_type;location;lat;lon;timestamp;P1;durP1;ratioP1;P2;durP2;ratioP2
30729;SDS011;17476;48.458;7.928;2023-02-22T00:01:11;0.40;;;0.40;;
30729;SDS011;17476;48.458;7.928;2023-02-22T00:03:59;0.30;;;0.30;;
30729;SDS011;17476;48.458;7.928;2023-02-22T00:06:27;0.30;;;0.30;;
30729;SDS011;17476;48.458;7.928;2023-02-22T00:08:55;0.20;;;0.20;;
30729;SDS011;17476;48.458;7.928;2023-02-22T00:11:21;0.30;;;0.30;;
30729;SDS011;17476;48.458;7.928;2023-02-22T00:13:47;0.30;;;0.30;;
30729;SDS011;17476;48.458;7.928;2023-02-22T00:16:18;0.40;;;0.40;;
30729;SDS011;17476;48.458;7.928;2023-02-22T00:18:46;0.30;;;0.30;;
30729;SDS011;17476;48.458;7.928;2023-02-22T00:21:13;0.30;;;0.30;;
30729;SDS011;17476;48.458;7.928;2023-02-22T00:23:41;0.30;;;0.30;;
30729;SDS011;17476;48.458;7.928;2023-02-22T00:26:14;0.30;;;0.30;;
30729;SDS011;17476;48.458;7.928;2023-02-22T00:28:47;0.40;;;0.40;;
30729;SDS011;17476;48.458;7.928;2023-02-22T00:31:16;0.30;;;0.30;;
30729;SDS011;17476;48.458;7.928;2023-02-22T00:33:42;0.30;;;0.30;;
30729;SDS011;17476;48.458;7.928;2023-02-22T00:36:09;0.30;;;0.30;;
30729;SDS011;17476;48.458;7.928;2023-02-22T00:38:37;0.30;;;0.30;;
30729;SDS011;17476;48.458;7.928;2023-02-22T00:41:04;0.30;;;0.30;;
30729;SDS011;17476;48.458;7.928;2023-02-22T00:43:31;0.40;;;0.40;;
30729;SDS011;17476;48.458;7.928;2023-02-22T00:45:57;0.30;;;0.30;;
30729;SDS011;17476;48.458;7.928;2023-02-22T00:48:23;0.37;;;0.37;;
30729;SDS011;17476;48.458;7.928;2023-02-22T00:50:49;0.30;;;0.30;;
30729;SDS011;17476;48.458;7.928;2023-02-22T00:53:19;0.20;;;0.20;;
30729;SDS011;17476;48.458;7.928;2023-02-22T00:55:46;0.30;;;0.30;;
30729;SDS011;17476;48.458;7.928;2023-02-22T00:58:12;0.43;;;0.43;;
30729;SDS011;17476;48.458;7.928;2023-02-22T01:00:40;0.37;;;0.37;;
30729;SDS011;17476;48.458;7.928;2023-02-22T01:03:08;0.30;;;0.30;;
30729;SDS011;17476;48.458;7.928;2023-02-22T01:05:37;0.30;;;0.30;;
30729;SDS011;17476;48.458;7.928;2023-02-22T01:08:03;0.20;;;0.20;;
30729;SDS011;17476;48.458;7.928;2023-02-22T01:10:30;0.30;;;0.30;;
30729;SDS011;17476;48.458;7.928;2023-02-22T01:12:58;0.30;;;0.30;;
30729;SDS011;17476;48.458;7.928;2023-02-22T01:15:26;0.20;;;0.20;;
30729;SDS011;17476;48.458;7.928;2023-02-22T01:17:55;0.40;;;0.40;;
30729;SDS011;17476;48.458;7.928;2023-02-22T01:20:23;0.30;;;0.30;;
30729;SDS011;17476;48.458;7.928;2023-02-22T01:22:51;0.30;;;0.30;;
30729;SDS011;17476;48.458;7.928;2023-02-22T01:25:26;0.40;;;0.40;;
30729;SDS011;17476;48.458;7.928;2023-02-22T01:27:55;0.40;;;0.40;;
30729;SDS011;17476;48.458;7.928;2023-02-22T01:30:23;0.30;;;0.30;;
30729;SDS011;17476;48.458;7.928;2023-02-22T01:32:53;0.40;;;0.40;;
30729;SDS011;17476;48.458;7.928;2023-02-22T01:35:21;0.30;;;0.30;;
30729;SDS011;17476;48.458;7.928;2023-02-22T01:37:51;0.40;;;0.40;;
30729;SDS011;17476;48.458;7.928;2023-02-22T01:40:36;0.33;;;0.33;;
30729;SDS011;17476;48.458;7.928;2023-02-22T01:43:22;0.40;;;0.40;;
30729;SDS011;17476;48.458;7.928;2023-02-22T01:48:52;0.30;;;0.30;;
30729;SDS011;17476;48.458;7.928;2023-02-22T01:51:28;0.30;;;0.30;;
30729;SDS011;17476;48.458;7.928;2023-02-22T01:54:05;0.30;;;0.30;;
30729;SDS011;17476;48.458;7.928;2023-02-22T01:57:25;0.30;;;0.30;;
30729;SDS011;17476;48.458;7.928;2023-02-22T01:59:39;0.30;;;0.30;;
30729;SDS011;17476;48.458;7.928;2023-02-22T02:02:08;0.30;;;0.30;;
30729;SDS011;17476;48.458;7.928;2023-02-22T02:04:35;0.37;;;0.37;;
30729;SDS011;17476;48.458;7.928;2023-02-22T02:07:03;0.37;;;0.37;;
30729;SDS011;17476;48.458;7.928;2023-02-22T02:09:45;0.30;;;0.30;;
30729;SDS011;17476;48.458;7.928;2023-02-22T02:12:18;0.33;;;0.33;;
30729;SDS011;17476;48.458;7.928;2023-02-22T02:14:47;0.30;;;0.30;;
30729;SDS011;17476;48.458;7.928;2023-02-22T02:17:15;0.40;;;0.40;;
30729;SDS011;17476;48.458;7.928;2023-02-22T02:22:59;0.30;;;0.30;;
30729;SDS011;17476;48.458;7.928;2023-02-22T02:40:28;0.40;;;0.40;;
30729;SDS011;17476;48.458;7.928;2023-02-22T02:43:16;0.40;;;0.40;;
30729;SDS011;17476;48.458;7.928;2023-02-22T02:46:21;0.40;;;0.40;;
30729;SDS011;17476;48.458;7.928;2023-02-22T02:49:12;0.30;;;0.30;;
30729;SDS011;17476;48.458;7.928;2023-02-22T02:51:48;0.37;;;0.37;;
30729;SDS011;17476;48.458;7.928;2023-02-22T02:54:18;0.30;;;0.30;;
30729;SDS011;17476;48.458;7.928;2023-02-22T02:56:46;0.30;;;0.30;;
30729;SDS011;17476;48.458;7.928;2023-02-22T03:18:48;0.40;;;0.40;;
30729;SDS011;17476;48.458;7.928;2023-02-22T03:26:38;0.30;;;0.30;;
30729;SDS011;17476;48.458;7.928;2023-02-22T03:29:13;0.30;;;0.30;;
30729;SDS011;17476;48.458;7.928;2023-02-22T03:31:47;0.30;;;0.30;;
30729;SDS011;17476;48.458;7.928;2023-02-22T03:34:23;0.30;;;0.30;;
30729;SDS011;17476;48.458;7.928;2023-02-22T03:36:55;0.30;;;0.30;;
30729;SDS011;17476;48.458;7.928;2023-02-22T03:39:26;0.23;;;0.23;;
30729;SDS011;17476;48.458;7.928;2023-02-22T03:41:57;0.40;;;0.40;;
30729;SDS011;17476;48.458;7.928;2023-02-22T03:44:31;0.40;;;0.40;;
30729;SDS011;17476;48.458;7.928;2023-02-22T03:47:00;0.20;;;0.20;;
30729;SDS011;17476;48.458;7.928;2023-02-22T03:49:34;0.30;;;0.30;;
30729;SDS011;17476;48.458;7.928;2023-02-22T03:52:12;0.30;;;0.30;;
30729;SDS011;17476;48.458;7.928;2023-02-22T03:54:38;0.43;;;0.43;;
30729;SDS011;17476;48.458;7.928;2023-02-22T03:57:09;0.40;;;0.40;;
30729;SDS011;17476;48.458;7.928;2023-02-22T03:59:48;0.40;;;0.40;;
30729;SDS011;17476;48.458;7.928;2023-02-22T04:02:15;0.40;;;0.40;;
30729;SDS011;17476;48.458;7.928;2023-02-22T04:04:43;0.30;;;0.30;;
30729;SDS011;17476;48.458;7.928;2023-02-22T04:07:11;0.30;;;0.30;;
30729;SDS011;17476;48.458;7.928;2023-02-22T04:09:37;0.30;;;0.30;;
30729;SDS011;17476;48.458;7.928;2023-02-22T04:12:03;0.30;;;0.30;;
30729;SDS011;17476;48.458;7.928;2023-02-22T04:14:29;0.30;;;0.30;;
30729;SDS011;17476;48.458;7.928;2023-02-22T04:16:55;0.40;;;0.40;;
30729;SDS011;17476;48.458;7.928;2023-02-22T04:19:20;0.30;;;0.30;;
30729;SDS011;17476;48.458;7.928;2023-02-22T04:21:46;0.30;;;0.30;;
30729;SDS011;17476;48.458;7.928;2023-02-22T04:24:13;0.40;;;0.40;;
30729;SDS011;17476;48.458;7.928;2023-02-22T04:26:39;0.30;;;0.30;;
30729;SDS011;17476;48.458;7.928;2023-02-22T04:29:05;0.30;;;0.30;;
30729;SDS011;17476;48.458;7.928;2023-02-22T04:31:32;0.33;;;0.33;;
30729;SDS011;17476;48.458;7.928;2023-02-22T04:33:58;0.40;;;0.40;;
30729;SDS011;17476;48.458;7.928;2023-02-22T04:36:25;0.40;;;0.40;;
30729;SDS011;17476;48.458;7.928;2023-02-22T04:38:52;0.40;;;0.40;;
30729;SDS011;17476;48.458;7.928;2023-02-22T04:41:18;0.33;;;0.33;;
30729;SDS011;17476;48.458;7.928;2023-02-22T04:43:44;0.30;;;0.30;;
30729;SDS011;17476;48.458;7.928;2023-02-22T04:46:11;0.30;;;0.30;;
30729;SDS011;17476;48.458;7.928;2023-02-22T04:48:37;0.40;;;0.40;;
30729;SDS011;17476;48.458;7.928;2023-02-22T04:51:03;0.40;;;0.40;;
30729;SDS011;17476;48.458;7.928;2023-02-22T04:53:29;0.20;;;0.20;;
30729;SDS011;17476;48.458;7.928;2023-02-22T04:55:56;0.30;;;0.30;;
30729;SDS011;17476;48.458;7.928;2023-02-22T04:58:21;0.30;;;0.30;;
30729;SDS011;17476;48.458;7.928;2023-02-22T05:00:47;0.30;;;0.30;;
30729;SDS011;17476;48.458;7.928;2023-02-22T05:03:13;0.40;;;0.40;;
30729;SDS011;17476;48.458;7.928;2023-02-22T05:05:39;0.33;;;0.33;;
30729;SDS011;17476;48.458;7.928;2023-02-22T05:08:05;0.30;;;0.30;;
30729;SDS011;17476;48.458;7.928;2023-02-22T05:10:31;0.30;;;0.30;;
30729;SDS011;17476;48.458;7.928;2023-02-22T05:12:57;0.30;;;0.30;;
30729;SDS011;17476;48.458;7.928;2023-02-22T05:15:23;0.30;;;0.30;;
30729;SDS011;17476;48.458;7.928;2023-02-22T05:17:50;0.30;;;0.30;;
30729;SDS011;17476;48.458;7.928;2023-02-22T05:20:20;0.30;;;0.30;;
30729;SDS011;17476;48.458;7.928;2023-02-22T05:22:54;0.40;;;0.40;;
30729;SDS011;17476;48.458;7.928;2023-02-22T05:25:21;0.33;;;0.33;;
30729;SDS011;17476;48.458;7.928;2023-02-22T05:27:49;0.40;;;0.40;;
30729;SDS011;17476;48.458;7.928;2023-02-22T05:30:27;0.30;;;0.30;;
30729;SDS011;17476;48.458;7.928;2023-02-22T05:32:56;0.40;;;0.40;;
30729;SDS011;17476;48.458;7.928;2023-02-22T05:35:23;0.40;;;0.40;;
30729;SDS011;17476;48.458;7.928;2023-02-22T05:37:50;0.40;;;0.40;;
30729;SDS011;17476;48.458;7.928;2023-02-22T05:40:17;0.33;;;0.33;;
30729;SDS011;17476;48.458;7.928;2023-02-22T05:42:45;0.40;;;0.40;;
30729;SDS011;17476;48.458;7.928;2023-02-22T05:45:12;0.30;;;0.30;;
30729;SDS011;17476;48.458;7.928;2023-02-22T05:47:40;0.30;;;0.30;;
30729;SDS011;17476;48.458;7.928;2023-02-22T05:50:06;0.33;;;0.33;;
30729;SDS011;17476;48.458;7.928;2023-02-22T05:52:33;0.30;;;0.30;;
30729;SDS011;17476;48.458;7.928;2023-02-22T05:54:59;0.40;;;0.40;;
30729;SDS011;17476;48.458;7.928;2023-02-22T05:57:25;0.30;;;0.30;;
30729;SDS011;17476;48.458;7.928;2023-02-22T05:59:51;0.40;;;0.40;;
30729;SDS011;17476;48.458;7.928;2023-02-22T06:02:17;0.30;;;0.30;;
30729;SDS011;17476;48.458;7.928;2023-02-22T06:04:44;0.40;;;0.40;;
30729;SDS011;17476;48.458;7.928;2023-02-22T06:07:10;0.33;;;0.33;;
30729;SDS011;17476;48.458;7.928;2023-02-22T06:09:38;0.40;;;0.40;;
30729;SDS011;17476;48.458;7.928;2023-02-22T06:12:05;0.47;;;0.47;;
30729;SDS011;17476;48.458;7.928;2023-02-22T06:14:32;0.30;;;0.30;;
30729;SDS011;17476;48.458;7.928;2023-02-22T06:16:58;0.40;;;0.40;;
30729;SDS011;17476;48.458;7.928;2023-02-22T06:19:25;0.40;;;0.40;;
30729;SDS011;17476;48.458;7.928;2023-02-22T06:21:55;0.30;;;0.30;;
30729;SDS011;17476;48.458;7.928;2023-02-22T06:24:24;0.30;;;0.30;;
30729;SDS011;17476;48.458;7.928;2023-02-22T06:26:56;0.37;;;0.37;;
30729;SDS011;17476;48.458;7.928;2023-02-22T06:29:26;0.33;;;0.33;;
30729;SDS011;17476;48.458;7.928;2023-02-22T06:31:54;0.30;;;0.30;;
30729;SDS011;17476;48.458;7.928;2023-02-22T06:34:20;0.37;;;0.37;;
30729;SDS011;17476;48.458;7.928;2023-02-22T06:36:46;0.30;;;0.30;;
30729;SDS011;17476;48.458;7.928;2023-02-22T06:39:13;0.40;;;0.40;;
30729;SDS011;17476;48.458;7.928;2023-02-22T06:41:40;0.30;;;0.30;;
30729;SDS011;17476;48.458;7.928;2023-02-22T06:44:08;0.30;;;0.30;;
30729;SDS011;17476;48.458;7.928;2023-02-22T06:46:35;0.30;;;0.30;;
30729;SDS011;17476;48.458;7.928;2023-02-22T06:49:02;0.30;;;0.30;;
30729;SDS011;17476;48.458;7.928;2023-02-22T06:51:28;0.37;;;0.37;;
30729;SDS011;17476;48.458;7.928;2023-02-22T06:53:55;0.30;;;0.30;;
30729;SDS011;17476;48.458;7.928;2023-02-22T06:56:21;0.30;;;0.30;;
30729;SDS011;17476;48.458;7.928;2023-02-22T06:58:46;0.40;;;0.40;;
30729;SDS011;17476;48.458;7.928;2023-02-22T07:01:13;0.30;;;0.30;;
30729;SDS011;17476;48.458;7.928;2023-02-22T07:03:39;0.30;;;0.30;;
30729;SDS011;17476;48.458;7.928;2023-02-22T07:06:06;0.30;;;0.30;;
30729;SDS011;17476;48.458;7.928;2023-02-22T07:08:32;0.30;;;0.30;;
30729;SDS011;17476;48.458;7.928;2023-02-22T07:10:58;0.30;;;0.30;;
30729;SDS011;17476;48.458;7.928;2023-02-22T07:13:24;0.30;;;0.30;;
30729;SDS011;17476;48.458;7.928;2023-02-22T07:15:50;0.30;;;0.30;;
30729;SDS011;17476;48.458;7.928;2023-02-22T07:18:16;0.30;;;0.30;;
30729;SDS011;17476;48.458;7.928;2023-02-22T07:20:41;0.30;;;0.30;;
30729;SDS011;17476;48.458;7.928;2023-02-22T07:23:07;0.30;;;0.30;;
30729;SDS011;17476;48.458;7.928;2023-02-22T07:25:33;0.40;;;0.40;;
30729;SDS011;17476;48.458;7.928;2023-02-22T07:27:59;0.33;;;0.33;;
30729;SDS011;17476;48.458;7.928;2023-02-22T07:32:59;0.30;;;0.30;;
30729;SDS011;17476;48.458;7.928;2023-02-22T07:38:13;0.40;;;0.40;;
30729;SDS011;17476;48.458;7.928;2023-02-22T07:40:41;0.33;;;0.33;;
30729;SDS011;17476;48.458;7.928;2023-02-22T07:43:23;0.40;;;0.40;;
30729;SDS011;17476;48.458;7.928;2023-02-22T07:45:53;0.33;;;0.33;;
30729;SDS011;17476;48.458;7.928;2023-02-22T07:48:22;0.30;;;0.30;;
30729;SDS011;17476;48.458;7.928;2023-02-22T07:50:50;0.30;;;0.30;;
30729;SDS011;17476;48.458;7.928;2023-02-22T07:53:20;0.30;;;0.30;;
30729;SDS011;17476;48.458;7.928;2023-02-22T07:56:01;0.30;;;0.30;;
30729;SDS011;17476;48.458;7.928;2023-02-22T07:58:30;0.30;;;0.30;;
30729;SDS011;17476;48.458;7.928;2023-02-22T08:00:57;0.30;;;0.30;;
30729;SDS011;17476;48.458;7.928;2023-02-22T08:03:26;0.30;;;0.30;;
30729;SDS011;17476;48.458;7.928;2023-02-22T08:05:56;0.23;;;0.23;;
30729;SDS011;17476;48.458;7.928;2023-02-22T08:08:24;0.30;;;0.30;;
30729;SDS011;17476;48.458;7.928;2023-02-22T08:10:51;0.30;;;0.30;;
30729;SDS011;17476;48.458;7.928;2023-02-22T08:13:17;0.30;;;0.30;;
30729;SDS011;17476;48.458;7.928;2023-02-22T08:15:44;0.30;;;0.30;;
30729;SDS011;17476;48.458;7.928;2023-02-22T08:18:11;0.27;;;0.27;;
30729;SDS011;17476;48.458;7.928;2023-02-22T08:20:41;0.30;;;0.30;;
30729;SDS011;17476;48.458;7.928;2023-02-22T08:23:09;0.30;;;0.30;;
30729;SDS011;17476;48.458;7.928;2023-02-22T08:25:37;0.20;;;0.20;;
30729;SDS011;17476;48.458;7.928;2023-02-22T08:28:04;0.20;;;0.20;;
30729;SDS011;17476;48.458;7.928;2023-02-22T08:30:36;0.27;;;0.27;;
30729;SDS011;17476;48.458;7.928;2023-02-22T08:33:07;0.20;;;0.20;;
30729;SDS011;17476;48.458;7.928;2023-02-22T08:35:34;0.20;;;0.20;;
30729;SDS011;17476;48.458;7.928;2023-02-22T08:38:02;0.20;;;0.20;;
30729;SDS011;17476;48.458;7.928;2023-02-22T08:40:32;0.30;;;0.30;;
30729;SDS011;17476;48.458;7.928;2023-02-22T08:43:00;0.20;;;0.20;;
30729;SDS011;17476;48.458;7.928;2023-02-22T08:45:27;0.20;;;0.20;;
30729;SDS011;17476;48.458;7.928;2023-02-22T08:47:56;0.20;;;0.20;;
30729;SDS011;17476;48.458;7.928;2023-02-22T08:50:27;0.20;;;0.20;;
30729;SDS011;17476;48.458;7.928;2023-02-22T08:52:58;0.30;;;0.30;;
30729;SDS011;17476;48.458;7.928;2023-02-22T08:55:27;0.20;;;0.20;;
30729;SDS011;17476;48.458;7.928;2023-02-22T08:57:58;0.20;;;0.20;;
30729;SDS011;17476;48.458;7.928;2023-02-22T09:00:27;0.20;;;0.20;;
30729;SDS011;17476;48.458;7.928;2023-02-22T09:02:57;0.20;;;0.20;;
30729;SDS011;17476;48.458;7.928;2023-02-22T09:05:27;0.20;;;0.20;;
30729;SDS011;17476;48.458;7.928;2023-02-22T09:07:53;0.30;;;0.30;;
30729;SDS011;17476;48.458;7.928;2023-02-22T09:10:20;0.17;;;0.17;;
30729;SDS011;17476;48.458;7.928;2023-02-22T09:12:54;0.20;;;0.20;;
30729;SDS011;17476;48.458;7.928;2023-02-22T09:15:21;0.20;;;0.20;;
30729;SDS011;17476;48.458;7.928;2023-02-22T09:17:48;0.13;;;0.13;;
30729;SDS011;17476;48.458;7.928;2023-02-22T09:20:16;0.10;;;0.10;;
30729;SDS011;17476;48.458;7.928;2023-02-22T09:22:44;0.03;;;0.03;;
30729;SDS011;17476;48.458;7.928;2023-02-22T09:25:12;0.10;;;0.10;;
30729;SDS011;17476;48.458;7.928;2023-02-22T09:27:39;0.10;;;0.10;;
30729;SDS011;17476;48.458;7.928;2023-02-22T09:30:06;0.20;;;0.20;;
30729;SDS011;17476;48.458;7.928;2023-02-22T09:32:35;0.20;;;0.20;;
30729;SDS011;17476;48.458;7.928;2023-02-22T09:35:01;0.10;;;0.10;;
30729;SDS011;17476;48.458;7.928;2023-02-22T09:37:27;0.10;;;0.10;;
30729;SDS011;17476;48.458;7.928;2023-02-22T09:39:53;0.10;;;0.10;;
30729;SDS011;17476;48.458;7.928;2023-02-22T09:42:25;0.10;;;0.10;;
30729;SDS011;17476;48.458;7.928;2023-02-22T09:47:43;0.10;;;0.10;;
30729;SDS011;17476;48.458;7.928;2023-02-22T09:50:27;0.10;;;0.10;;
30729;SDS011;17476;48.458;7.928;2023-02-22T09:53:06;0.10;;;0.10;;
30729;SDS011;17476;48.458;7.928;2023-02-22T09:56:00;0.00;;;0.00;;
30729;SDS011;17476;48.458;7.928;2023-02-22T09:58:46;0.10;;;0.10;;
30729;SDS011;17476;48.458;7.928;2023-02-22T10:01:27;0.10;;;0.10;;
30729;SDS011;17476;48.458;7.928;2023-02-22T10:10:01;0.10;;;0.10;;
30729;SDS011;17476;48.458;7.928;2023-02-22T10:18:16;0.10;;;0.10;;
30729;SDS011;17476;48.458;7.928;2023-02-22T10:21:14;0.10;;;0.10;;
30729;SDS011;17476;48.458;7.928;2023-02-22T10:27:26;0.10;;;0.10;;
30729;SDS011;17476;48.458;7.928;2023-02-22T10:30:20;0.10;;;0.10;;
30729;SDS011;17476;48.458;7.928;2023-02-22T10:33:14;0.10;;;0.10;;
30729;SDS011;17476;48.458;7.928;2023-02-22T10:35:46;0.10;;;0.10;;
30729;SDS011;17476;48.458;7.928;2023-02-22T10:43:32;0.10;;;0.10;;
30729;SDS011;17476;48.458;7.928;2023-02-22T10:46:03;0.00;;;0.00;;
30729;SDS011;17476;48.458;7.928;2023-02-22T10:48:33;0.00;;;0.00;;
30729;SDS011;17476;48.458;7.928;2023-02-22T10:51:03;0.10;;;0.10;;
30729;SDS011;17476;48.458;7.928;2023-02-22T10:53:32;0.00;;;0.00;;
30729;SDS011;17476;48.458;7.928;2023-02-22T10:56:18;0.00;;;0.00;;
30729;SDS011;17476;48.458;7.928;2023-02-22T10:58:53;0.10;;;0.10;;
30729;SDS011;17476;48.458;7.928;2023-02-22T11:04:11;0.10;;;0.10;;
30729;SDS011;17476;48.458;7.928;2023-02-22T11:06:46;0.10;;;0.10;;
30729;SDS011;17476;48.458;7.928;2023-02-22T11:09:31;0.10;;;0.10;;
30729;SDS011;17476;48.458;7.928;2023-02-22T11:12:31;0.10;;;0.10;;
30729;SDS011;17476;48.458;7.928;2023-02-22T11:17:47;0.10;;;0.10;;
30729;SDS011;17476;48.458;7.928;2023-02-22T11:20:19;0.10;;;0.10;;
30729;SDS011;17476;48.458;7.928;2023-02-22T11:22:58;0.10;;;0.10;;
30729;SDS011;17476;48.458;7.928;2023-02-22T11:25:32;0.10;;;0.10;;
30729;SDS011;17476;48.458;7.928;2023-02-22T11:28:20;0.10;;;0.10;;
30729;SDS011;17476;48.458;7.928;2023-02-22T11:30:57;0.10;;;0.10;;
30729;SDS011;17476;48.458;7.928;2023-02-22T11:33:52;0.10;;;0.10;;
30729;SDS011;17476;48.458;7.928;2023-02-22T11:36:42;0.10;;;0.10;;
30729;SDS011;17476;48.458;7.928;2023-02-22T11:47:45;0.20;;;0.20;;
30729;SDS011;17476;48.458;7.928;2023-02-22T11:54:03;0.10;;;0.10;;
30729;SDS011;17476;48.458;7.928;2023-02-22T12:02:55;0.10;;;0.10;;
30729;SDS011;17476;48.458;7.928;2023-02-22T12:06:13;0.10;;;0.10;;
30729;SDS011;17476;48.458;7.928;2023-02-22T12:17:32;0.10;;;0.10;;
30729;SDS011;17476;48.458;7.928;2023-02-22T12:20:37;0.00;;;0.00;;
30729;SDS011;17476;48.458;7.928;2023-02-22T12:23:20;0.10;;;0.10;;
30729;SDS011;17476;48.458;7.928;2023-02-22T12:26:10;0.10;;;0.10;;
30729;SDS011;17476;48.458;7.928;2023-02-22T12:31:37;0.10;;;0.10;;
30729;SDS011;17476;48.458;7.928;2023-02-22T12:37:19;0.07;;;0.07;;
30729;SDS011;17476;48.458;7.928;2023-02-22T12:45:51;0.10;;;0.10;;
30729;SDS011;17476;48.458;7.928;2023-02-22T12:54:44;0.10;;;0.10;;
30729;SDS011;17476;48.458;7.928;2023-02-22T12:58:01;0.10;;;0.10;;
30729;SDS011;17476;48.458;7.928;2023-02-22T13:01:01;0.00;;;0.00;;
30729;SDS011;17476;48.458;7.928;2023-02-22T13:03:37;0.10;;;0.10;;
30729;SDS011;17476;48.458;7.928;2023-02-22T13:08:59;0.10;;;0.10;;
30729;SDS011;17476;48.458;7.928;2023-02-22T13:11:56;0.10;;;0.10;;
30729;SDS011;17476;48.458;7.928;2023-02-22T13:20:45;0.00;;;0.00;;
30729;SDS011;17476;48.458;7.928;2023-02-22T13:26:43;0.10;;;0.10;;
30729;SDS011;17476;48.458;7.928;2023-02-22T13:29:38;0.10;;;0.10;;
30729;SDS011;17476;48.458;7.928;2023-02-22T13:32:28;0.10;;;0.10;;
30729;SDS011;17476;48.458;7.928;2023-02-22T13:41:00;0.10;;;0.10;;
30729;SDS011;17476;48.458;7.928;2023-02-22T13:43:53;0.10;;;0.10;;
30729;SDS011;17476;48.458;7.928;2023-02-22T13:49:46;0.10;;;0.10;;
30729;SDS011;17476;48.458;7.928;2023-02-22T13:52:48;0.00;;;0.00;;
30729;SDS011;17476;48.458;7.928;2023-02-22T13:55:17;0.10;;;0.10;;
30729;SDS011;17476;48.458;7.928;2023-02-22T13:57:55;0.10;;;0.10;;
30729;SDS011;17476;48.458;7.928;2023-02-22T14:00:43;0.00;;;0.00;;
30729;SDS011;17476;48.458;7.928;2023-02-22T14:10:54;0.03;;;0.03;;
30729;SDS011;17476;48.458;7.928;2023-02-22T14:16:20;0.10;;;0.10;;
30729;SDS011;17476;48.458;7.928;2023-02-22T14:21:37;0.20;;;0.20;;
30729;SDS011;17476;48.458;7.928;2023-02-22T14:24:27;0.10;;;0.10;;
30729;SDS011;17476;48.458;7.928;2023-02-22T14:27:06;0.10;;;0.10;;
30729;SDS011;17476;48.458;7.928;2023-02-22T14:29:33;0.10;;;0.10;;
30729;SDS011;17476;48.458;7.928;2023-02-22T14:32:00;0.00;;;0.00;;
30729;SDS011;17476;48.458;7.928;2023-02-22T14:37:17;0.10;;;0.10;;
30729;SDS011;17476;48.458;7.928;2023-02-22T14:39:51;0.10;;;0.10;;
30729;SDS011;17476;48.458;7.928;2023-02-22T14:42:46;0.03;;;0.03;;
30729;SDS011;17476;48.458;7.928;2023-02-22T14:45:22;0.10;;;0.10;;
30729;SDS011;17476;48.458;7.928;2023-02-22T14:53:16;0.10;;;0.10;;
30729;SDS011;17476;48.458;7.928;2023-02-22T14:56:27;0.10;;;0.10;;
30729;SDS011;17476;48.458;7.928;2023-02-22T14:59:12;0.00;;;0.00;;
30729;SDS011;17476;48.458;7.928;2023-02-22T15:01:48;0.10;;;0.10;;
30729;SDS011;17476;48.458;7.928;2023-02-22T15:04:24;0.00;;;0.00;;
30729;SDS011;17476;48.458;7.928;2023-02-22T15:06:58;0.10;;;0.10;;
30729;SDS011;17476;48.458;7.928;2023-02-22T15:09:32;0.10;;;0.10;;
30729;SDS011;17476;48.458;7.928;2023-02-22T15:14:27;0.00;;;0.00;;
30729;SDS011;17476;48.458;7.928;2023-02-22T15:17:00;0.00;;;0.00;;
30729;SDS011;17476;48.458;7.928;2023-02-22T15:19:43;0.10;;;0.10;;
30729;SDS011;17476;48.458;7.928;2023-02-22T15:22:25;0.10;;;0.10;;
30729;SDS011;17476;48.458;7.928;2023-02-22T15:25:03;0.10;;;0.10;;
30729;SDS011;17476;48.458;7.928;2023-02-22T15:27:32;0.07;;;0.07;;
30729;SDS011;17476;48.458;7.928;2023-02-22T15:30:34;0.10;;;0.10;;
30729;SDS011;17476;48.458;7.928;2023-02-22T15:33:08;0.10;;;0.10;;
30729;SDS011;17476;48.458;7.928;2023-02-22T15:35:40;0.00;;;0.00;;
30729;SDS011;17476;48.458;7.928;2023-02-22T15:38:18;0.10;;;0.10;;
30729;SDS011;17476;48.458;7.928;2023-02-22T15:40:46;0.10;;;0.10;;
30729;SDS011;17476;48.458;7.928;2023-02-22T15:43:22;0.10;;;0.10;;
30729;SDS011;17476;48.458;7.928;2023-02-22T15:45:52;0.10;;;0.10;;
30729;SDS011;17476;48.458;7.928;2023-02-22T15:48:20;0.10;;;0.10;;
30729;SDS011;17476;48.458;7.928;2023-02-22T15:50:57;0.10;;;0.10;;
30729;SDS011;17476;48.458;7.928;2023-02-22T15:56:13;0.10;;;0.10;;
30729;SDS011;17476;48.458;7.928;2023-02-22T15:58:58;0.10;;;0.10;;
30729;SDS011;17476;48.458;7.928;2023-02-22T16:01:35;0.10;;;0.10;;
30729;SDS011;17476;48.458;7.928;2023-02-22T16:04:03;0.10;;;0.10;;
30729;SDS011;17476;48.458;7.928;2023-02-22T16:06:37;0.10;;;0.10;;
30729;SDS011;17476;48.458;7.928;2023-02-22T16:09:09;0.00;;;0.00;;
30729;SDS011;17476;48.458;7.928;2023-02-22T16:11:47;0.10;;;0.10;;
30729;SDS011;17476;48.458;7.928;2023-02-22T16:14:27;0.07;;;0.07;;
30729;SDS011;17476;48.458;7.928;2023-02-22T16:20:27;0.10;;;0.10;;
30729;SDS011;17476;48.458;7.928;2023-02-22T16:22:47;0.10;;;0.10;;
30729;SDS011;17476;48.458;7.928;2023-02-22T16:27:41;0.10;;;0.10;;
30729;SDS011;17476;48.458;7.928;2023-02-22T16:32:56;0.10;;;0.10;;
30729;SDS011;17476;48.458;7.928;2023-02-22T16:35:24;0.10;;;0.10;;
30729;SDS011;17476;48.458;7.928;2023-02-22T16:38:04;0.20;;;0.20;;
30729;SDS011;17476;48.458;7.928;2023-02-22T16:40:41;0.10;;;0.10;;
30729;SDS011;17476;48.458;7.928;2023-02-22T16:43:19;0.10;;;0.10;;
30729;SDS011;17476;48.458;7.928;2023-02-22T16:45:48;0.10;;;0.10;;
30729;SDS011;17476;48.458;7.928;2023-02-22T16:48:16;0.10;;;0.10;;
30729;SDS011;17476;48.458;7.928;2023-02-22T16:50:48;0.10;;;0.10;;
30729;SDS011;17476;48.458;7.928;2023-02-22T16:53:17;0.10;;;0.10;;
30729;SDS011;17476;48.458;7.928;2023-02-22T16:55:49;0.10;;;0.10;;
30729;SDS011;17476;48.458;7.928;2023-02-22T16:58:21;0.10;;;0.10;;
30729;SDS011;17476;48.458;7.928;2023-02-22T17:00:52;0.10;;;0.10;;
30729;SDS011;17476;48.458;7.928;2023-02-22T17:03:21;0.10;;;0.10;;
30729;SDS011;17476;48.458;7.928;2023-02-22T17:05:48;0.10;;;0.10;;
30729;SDS011;17476;48.458;7.928;2023-02-22T17:08:14;0.17;;;0.17;;
30729;SDS011;17476;48.458;7.928;2023-02-22T17:10:41;0.10;;;0.10;;
30729;SDS011;17476;48.458;7.928;2023-02-22T17:13:07;0.10;;;0.10;;
30729;SDS011;17476;48.458;7.928;2023-02-22T17:15:34;0.10;;;0.10;;
30729;SDS011;17476;48.458;7.928;2023-02-22T17:18:02;0.10;;;0.10;;
30729;SDS011;17476;48.458;7.928;2023-02-22T17:20:37;0.10;;;0.10;;
30729;SDS011;17476;48.458;7.928;2023-02-22T17:23:07;0.10;;;0.10;;
30729;SDS011;17476;48.458;7.928;2023-02-22T17:28:06;0.00;;;0.00;;
30729;SDS011;17476;48.458;7.928;2023-02-22T17:30:33;0.10;;;0.10;;
30729;SDS011;17476;48.458;7.928;2023-02-22T17:33:01;0.10;;;0.10;;
30729;SDS011;17476;48.458;7.928;2023-02-22T17:35:32;0.20;;;0.20;;
30729;SDS011;17476;48.458;7.928;2023-02-22T17:38:01;0.10;;;0.10;;
30729;SDS011;17476;48.458;7.928;2023-02-22T17:40:31;0.10;;;0.10;;
30729;SDS011;17476;48.458;7.928;2023-02-22T17:42:59;0.10;;;0.10;;
30729;SDS011;17476;48.458;7.928;2023-02-22T17:45:26;0.10;;;0.10;;
30729;SDS011;17476;48.458;7.928;2023-02-22T17:47:52;0.10;;;0.10;;
30729;SDS011;17476;48.458;7.928;2023-02-22T17:50:19;0.10;;;0.10;;
30729;SDS011;17476;48.458;7.928;2023-02-22T17:52:46;0.17;;;0.17;;
30729;SDS011;17476;48.458;7.928;2023-02-22T17:55:18;0.10;;;0.10;;
30729;SDS011;17476;48.458;7.928;2023-02-22T17:57:46;0.10;;;0.10;;
30729;SDS011;17476;48.458;7.928;2023-02-22T18:00:16;0.10;;;0.10;;
30729;SDS011;17476;48.458;7.928;2023-02-22T18:02:48;0.10;;;0.10;;
30729;SDS011;17476;48.458;7.928;2023-02-22T18:05:15;0.20;;;0.20;;
30729;SDS011;17476;48.458;7.928;2023-02-22T18:07:42;0.10;;;0.10;;
30729;SDS011;17476;48.458;7.928;2023-02-22T18:10:09;0.10;;;0.10;;
30729;SDS011;17476;48.458;7.928;2023-02-22T18:12:39;0.20;;;0.20;;
30729;SDS011;17476;48.458;7.928;2023-02-22T18:15:07;0.20;;;0.20;;
30729;SDS011;17476;48.458;7.928;2023-02-22T18:17:35;0.10;;;0.10;;
30729;SDS011;17476;48.458;7.928;2023-02-22T18:20:02;0.20;;;0.20;;
30729;SDS011;17476;48.458;7.928;2023-02-22T18:22:36;0.20;;;0.20;;